Leominster, MA (01453)

5:01 PM EDT on May 26, 2017 (GMT -0400)
Grove Ave | | Change Station

Elev 404 ft 42.54 °N, 71.76 °W | Updated 1 minute ago

Light Rain
Light Rain
59.7 °F
Feels Like 59.7 °F
N
1.6
Wind Variable Wind from NE
Gusts 5.1 mph

Today
High -- | Low -- °F
--% Chance of Precip.
Yesterday
High -- | Low -- °F
Precip. -- in
Pressure 29.60 in
Visibility 10.0 miles
Clouds Few 1700 ft
Mostly Cloudy 7500 ft
Overcast 9000 ft
Dew Point 60 °F
Humidity 99%
Rainfall 1.05 in
Snow Depth Not available.
5:15 AM 8:13 PM
New Moon, 2% visible
METAR KFIT 262052Z AUTO 28005KT 10SM -RA FEW017 BKN075 OVC090 15/12 A2959 RMK AO2 RAE1956B42 SLP022 P0000 60009 T01500122 51008
Pressure 29.60 in
Visibility 10.0 miles
Clouds Few 1700 ft
Mostly Cloudy 7500 ft
Overcast 9000 ft
Dew Point 60 °F
Humidity 99%
Rainfall 1.05 in
Snow Depth Not available.
5:15 AM 8:13 PM
New Moon, 2% visible
METAR KFIT 262052Z AUTO 28005KT 10SM -RA FEW017 BKN075 OVC090 15/12 A2959 RMK AO2 RAE1956B42 SLP022 P0000 60009 T01500122 51008

Get Severe Weather Alerts

Thanks for signing up!

Be on the lookout for a verification email in your inbox.

You'll start receiving the daily forecast at 6 AM.

×

10-Day Weather Forecast

Almanac

Astronomy

May. 26, 2017 Rise Set
Actual Time
Civil Twilight
Nautical Twilight
Astronomical Twilight
Moon
Length of Visible Light
Length of Day
Tomorrow will be .
, % of the Moon is Illuminated

Today's Extremes

State Highs State Lows

Community

WunderPhotos

Category 6

Welcome to Category 6. This is the collective home for Weather Underground's featured writeups by Dr. Jeff Masters (right), Bob Henson (left), Chris Burt, and other regular contributors.

Nearby

Air Quality

  Air Quality AQ Index Pollutant
Not available.

Snow Depth

Station Depth Elevation

Earthquake Activity

City Distance Mag. Time & Date
Minimum magnitude displayed is 2.5.

Coastal Water Temperatures

Place Temperature

Stations

Nearby Weather Stations

Station Location Temp. Windchill Dew Point Humidity Wind Precip. Elev Updated Type
                   

Watches & Warnings

There are currently no watches in effect.